sensor_id;sensor_type;location;lat;lon;timestamp;pressure;altitude;pressure_sealevel;temperature;humidity
59787;BME280;45672;51.612;5.536;2023-09-18T00:00:10;100432.00;;;18.90;100.00
59787;BME280;45672;51.612;5.536;2023-09-18T00:02:37;100413.13;;;18.90;100.00
59787;BME280;45672;51.612;5.536;2023-09-18T00:05:04;100410.88;;;18.87;100.00
59787;BME280;45672;51.612;5.536;2023-09-18T00:07:29;100398.22;;;18.87;100.00
59787;BME280;45672;51.612;5.536;2023-09-18T00:09:54;100389.50;;;18.85;100.00
59787;BME280;45672;51.612;5.536;2023-09-18T00:12:20;100386.81;;;18.85;100.00
59787;BME280;45672;51.612;5.536;2023-09-18T00:14:48;100391.16;;;18.86;100.00
59787;BME280;45672;51.612;5.536;2023-09-18T00:17:14;100396.16;;;18.83;100.00
59787;BME280;45672;51.612;5.536;2023-09-18T00:19:40;100386.41;;;18.82;100.00
59787;BME280;45672;51.612;5.536;2023-09-18T00:22:05;100386.41;;;18.82;100.00
59787;BME280;45672;51.612;5.536;2023-09-18T00:24:31;100383.72;;;18.82;100.00
59787;BME280;45672;51.612;5.536;2023-09-18T00:26:57;100365.75;;;18.75;100.00
59787;BME280;45672;51.612;5.536;2023-09-18T00:29:22;100364.72;;;18.76;100.00
59787;BME280;45672;51.612;5.536;2023-09-18T00:31:48;100362.59;;;18.78;100.00
59787;BME280;45672;51.612;5.536;2023-09-18T00:34:13;100351.25;;;18.76;100.00
59787;BME280;45672;51.612;5.536;2023-09-18T00:36:38;100348.53;;;18.76;100.00
59787;BME280;45672;51.612;5.536;2023-09-18T00:39:04;100347.69;;;18.76;100.00
59787;BME280;45672;51.612;5.536;2023-09-18T00:41:29;100342.31;;;18.76;100.00
59787;BME280;45672;51.612;5.536;2023-09-18T00:43:54;100339.63;;;18.76;100.00
59787;BME280;45672;51.612;5.536;2023-09-18T00:46:20;100334.22;;;18.76;100.00
59787;BME280;45672;51.612;5.536;2023-09-18T00:48:46;100330.94;;;18.74;100.00
59787;BME280;45672;51.612;5.536;2023-09-18T00:51:12;100325.56;;;18.74;100.00
59787;BME280;45672;51.612;5.536;2023-09-18T00:53:38;100311.69;;;18.70;100.00
59787;BME280;45672;51.612;5.536;2023-09-18T00:56:03;100306.91;;;18.72;100.00
59787;BME280;45672;51.612;5.536;2023-09-18T00:58:29;100316.19;;;18.76;100.00
59787;BME280;45672;51.612;5.536;2023-09-18T01:00:55;100315.13;;;18.77;100.00
59787;BME280;45672;51.612;5.536;2023-09-18T01:03:21;100317.25;;;18.75;100.00
59787;BME280;45672;51.612;5.536;2023-09-18T01:05:46;100314.09;;;18.78;100.00
59787;BME280;45672;51.612;5.536;2023-09-18T01:08:12;100300.41;;;18.80;100.00
59787;BME280;45672;51.612;5.536;2023-09-18T01:13:35;100274.28;;;18.81;100.00
59787;BME280;45672;51.612;5.536;2023-09-18T01:16:10;100260.34;;;18.84;100.00
59787;BME280;45672;51.612;5.536;2023-09-18T01:18:38;100262.00;;;18.85;100.00
59787;BME280;45672;51.612;5.536;2023-09-18T01:21:13;100265.31;;;18.87;100.00
59787;BME280;45672;51.612;5.536;2023-09-18T01:23:38;100254.31;;;18.88;100.00
59787;BME280;45672;51.612;5.536;2023-09-18T01:26:03;100249.53;;;18.90;100.00
59787;BME280;45672;51.612;5.536;2023-09-18T01:28:29;100258.44;;;18.91;100.00
59787;BME280;45672;51.612;5.536;2023-09-18T01:30:54;100253.84;;;18.91;100.00
59787;BME280;45672;51.612;5.536;2023-09-18T01:33:20;100259.25;;;18.91;100.00
59787;BME280;45672;51.612;5.536;2023-09-18T01:35:46;100253.63;;;18.93;100.00
59787;BME280;45672;51.612;5.536;2023-09-18T01:38:12;100257.53;;;18.97;100.00
59787;BME280;45672;51.612;5.536;2023-09-18T01:40:37;100255.91;;;18.96;100.00
59787;BME280;45672;51.612;5.536;2023-09-18T01:43:03;100253.22;;;18.96;100.00
59787;BME280;45672;51.612;5.536;2023-09-18T01:45:28;100256.50;;;18.98;100.00
59787;BME280;45672;51.612;5.536;2023-09-18T01:47:54;100262.25;;;19.02;100.00
59787;BME280;45672;51.612;5.536;2023-09-18T01:50:19;100260.16;;;19.04;100.00
59787;BME280;45672;51.612;5.536;2023-09-18T01:52:45;100247.13;;;19.01;100.00
59787;BME280;45672;51.612;5.536;2023-09-18T01:55:10;100256.53;;;19.10;100.00
59787;BME280;45672;51.612;5.536;2023-09-18T01:57:35;100253.19;;;19.15;100.00
59787;BME280;45672;51.612;5.536;2023-09-18T02:00:01;100262.69;;;19.17;100.00
59787;BME280;45672;51.612;5.536;2023-09-18T02:02:29;100257.50;;;19.16;100.00
59787;BME280;45672;51.612;5.536;2023-09-18T02:04:54;100258.13;;;19.18;100.00
59787;BME280;45672;51.612;5.536;2023-09-18T02:07:20;100255.66;;;19.16;100.00
59787;BME280;45672;51.612;5.536;2023-09-18T02:09:45;100259.75;;;19.19;100.00
59787;BME280;45672;51.612;5.536;2023-09-18T02:12:10;100252.13;;;19.16;100.00
59787;BME280;45672;51.612;5.536;2023-09-18T02:14:42;100260.59;;;19.19;100.00
59787;BME280;45672;51.612;5.536;2023-09-18T02:17:08;100251.25;;;19.22;100.00
59787;BME280;45672;51.612;5.536;2023-09-18T02:19:33;100241.72;;;19.19;100.00
59787;BME280;45672;51.612;5.536;2023-09-18T02:21:58;100231.75;;;19.20;100.00
59787;BME280;45672;51.612;5.536;2023-09-18T02:24:24;100231.97;;;19.18;100.00
59787;BME280;45672;51.612;5.536;2023-09-18T02:26:49;100229.75;;;19.15;100.00
59787;BME280;45672;51.612;5.536;2023-09-18T02:29:14;100226.44;;;19.13;100.00
59787;BME280;45672;51.612;5.536;2023-09-18T02:31:39;100221.25;;;19.11;100.00
59787;BME280;45672;51.612;5.536;2023-09-18T02:34:05;100220.97;;;19.20;100.00
59787;BME280;45672;51.612;5.536;2023-09-18T02:36:32;100218.25;;;19.20;100.00
59787;BME280;45672;51.612;5.536;2023-09-18T02:38:57;100204.53;;;19.21;100.00
59787;BME280;45672;51.612;5.536;2023-09-18T02:41:23;100196.22;;;19.23;100.00
59787;BME280;45672;51.612;5.536;2023-09-18T02:43:48;100180.28;;;19.21;100.00
59787;BME280;45672;51.612;5.536;2023-09-18T02:46:13;100162.66;;;19.19;100.00
59787;BME280;45672;51.612;5.536;2023-09-18T02:48:39;100165.97;;;19.21;100.00
59787;BME280;45672;51.612;5.536;2023-09-18T02:51:05;100163.50;;;19.19;100.00
59787;BME280;45672;51.612;5.536;2023-09-18T02:53:30;100157.50;;;19.17;100.00
59787;BME280;45672;51.612;5.536;2023-09-18T02:55:57;100147.56;;;19.18;100.00
59787;BME280;45672;51.612;5.536;2023-09-18T02:58:23;100149.41;;;19.17;100.00
59787;BME280;45672;51.612;5.536;2023-09-18T03:00:51;100131.69;;;19.09;100.00
59787;BME280;45672;51.612;5.536;2023-09-18T03:03:17;100151.88;;;19.19;100.00
59787;BME280;45672;51.612;5.536;2023-09-18T03:05:43;100153.53;;;19.20;100.00
59787;BME280;45672;51.612;5.536;2023-09-18T03:08:10;100142.97;;;19.18;100.00
59787;BME280;45672;51.612;5.536;2023-09-18T03:10:37;100144.88;;;19.18;100.00
59787;BME280;45672;51.612;5.536;2023-09-18T03:13:03;100144.13;;;19.10;100.00
59787;BME280;45672;51.612;5.536;2023-09-18T03:15:29;100151.69;;;19.20;100.00
59787;BME280;45672;51.612;5.536;2023-09-18T03:17:56;100148.53;;;19.23;100.00
59787;BME280;45672;51.612;5.536;2023-09-18T03:20:25;100140.78;;;19.27;100.00
59787;BME280;45672;51.612;5.536;2023-09-18T03:22:53;100138.06;;;19.27;100.00
59787;BME280;45672;51.612;5.536;2023-09-18T03:25:19;100127.28;;;19.27;100.00
59787;BME280;45672;51.612;5.536;2023-09-18T03:27:44;100134.34;;;19.28;100.00
59787;BME280;45672;51.612;5.536;2023-09-18T03:30:09;100140.69;;;19.34;100.00
59787;BME280;45672;51.612;5.536;2023-09-18T03:32:38;100132.34;;;19.35;100.00
59787;BME280;45672;51.612;5.536;2023-09-18T03:35:03;100132.34;;;19.35;100.00
59787;BME280;45672;51.612;5.536;2023-09-18T03:37:29;100145.63;;;19.37;100.00
59787;BME280;45672;51.612;5.536;2023-09-18T03:39:54;100151.81;;;19.37;100.00
59787;BME280;45672;51.612;5.536;2023-09-18T03:42:19;100141.41;;;19.41;100.00
59787;BME280;45672;51.612;5.536;2023-09-18T03:44:45;100133.06;;;19.42;100.00
59787;BME280;45672;51.612;5.536;2023-09-18T03:47:10;100143.88;;;19.42;100.00
59787;BME280;45672;51.612;5.536;2023-09-18T03:49:35;100156.78;;;19.40;100.00
59787;BME280;45672;51.612;5.536;2023-09-18T03:52:00;100155.94;;;19.40;100.00
59787;BME280;45672;51.612;5.536;2023-09-18T03:54:26;100140.38;;;19.42;100.00
59787;BME280;45672;51.612;5.536;2023-09-18T03:56:51;100150.06;;;19.43;100.00
59787;BME280;45672;51.612;5.536;2023-09-18T03:59:16;100148.22;;;19.43;100.00
59787;BME280;45672;51.612;5.536;2023-09-18T04:01:41;100145.28;;;19.45;100.00
59787;BME280;45672;51.612;5.536;2023-09-18T04:04:07;100134.25;;;19.46;100.00
59787;BME280;45672;51.612;5.536;2023-09-18T04:06:40;100135.91;;;19.48;100.00
59787;BME280;45672;51.612;5.536;2023-09-18T04:09:05;100116.66;;;19.44;100.00
59787;BME280;45672;51.612;5.536;2023-09-18T04:11:31;100138.00;;;19.45;100.00
59787;BME280;45672;51.612;5.536;2023-09-18T04:14:01;100151.50;;;19.45;100.00
59787;BME280;45672;51.612;5.536;2023-09-18T04:16:27;100162.75;;;19.42;100.00
59787;BME280;45672;51.612;5.536;2023-09-18T04:19:01;100150.31;;;19.41;100.00
59787;BME280;45672;51.612;5.536;2023-09-18T04:21:26;100166.25;;;19.43;100.00
59787;BME280;45672;51.612;5.536;2023-09-18T04:23:52;100177.44;;;19.46;100.00
59787;BME280;45672;51.612;5.536;2023-09-18T04:26:25;100160.31;;;19.53;100.00
59787;BME280;45672;51.612;5.536;2023-09-18T04:28:55;100146.38;;;19.56;100.00
59787;BME280;45672;51.612;5.536;2023-09-18T04:31:20;100145.31;;;19.57;100.00
59787;BME280;45672;51.612;5.536;2023-09-18T04:33:46;100122.44;;;19.48;100.00
59787;BME280;45672;51.612;5.536;2023-09-18T04:36:11;100129.44;;;19.49;100.00
59787;BME280;45672;51.612;5.536;2023-09-18T04:38:37;100116.66;;;19.44;100.00
59787;BME280;45672;51.612;5.536;2023-09-18T04:41:02;100117.03;;;19.48;100.00
59787;BME280;45672;51.612;5.536;2023-09-18T04:43:28;100114.81;;;19.44;100.00
59787;BME280;45672;51.612;5.536;2023-09-18T04:45:55;100116.88;;;19.42;100.00
59787;BME280;45672;51.612;5.536;2023-09-18T04:48:21;100099.66;;;19.43;100.00
59787;BME280;45672;51.612;5.536;2023-09-18T04:50:46;100082.63;;;19.43;100.00
59787;BME280;45672;51.612;5.536;2023-09-18T04:53:12;100077.72;;;19.40;100.00
59787;BME280;45672;51.612;5.536;2023-09-18T04:55:38;100063.97;;;19.41;100.00
59787;BME280;45672;51.612;5.536;2023-09-18T04:58:03;100065.06;;;19.40;100.00
59787;BME280;45672;51.612;5.536;2023-09-18T05:00:30;100060.34;;;19.36;100.00
59787;BME280;45672;51.612;5.536;2023-09-18T05:02:57;100053.19;;;19.29;100.00
59787;BME280;45672;51.612;5.536;2023-09-18T05:05:25;100062.00;;;19.37;100.00
59787;BME280;45672;51.612;5.536;2023-09-18T05:07:50;100055.88;;;19.29;100.00
59787;BME280;45672;51.612;5.536;2023-09-18T05:10:15;100055.31;;;19.27;100.00
59787;BME280;45672;51.612;5.536;2023-09-18T05:12:41;100055.88;;;19.29;100.00
59787;BME280;45672;51.612;5.536;2023-09-18T05:15:08;100058.69;;;19.23;100.00
59787;BME280;45672;51.612;5.536;2023-09-18T05:17:45;100058.44;;;19.24;100.00
59787;BME280;45672;51.612;5.536;2023-09-18T05:20:17;100057.16;;;19.27;100.00
59787;BME280;45672;51.612;5.536;2023-09-18T05:22:42;100059.38;;;19.18;100.00
59787;BME280;45672;51.612;5.536;2023-09-18T05:25:09;100062.69;;;19.20;100.00
59787;BME280;45672;51.612;5.536;2023-09-18T05:27:36;100062.88;;;19.19;100.00
59787;BME280;45672;51.612;5.536;2023-09-18T05:30:01;100064.44;;;19.15;100.00
59787;BME280;45672;51.612;5.536;2023-09-18T05:32:27;100080.00;;;19.12;100.00
59787;BME280;45672;51.612;5.536;2023-09-18T05:34:52;100087.28;;;19.12;100.00
59787;BME280;45672;51.612;5.536;2023-09-18T05:37:18;100085.41;;;19.12;100.00
59787;BME280;45672;51.612;5.536;2023-09-18T05:39:43;100083.50;;;19.13;100.00
59787;BME280;45672;51.612;5.536;2023-09-18T05:42:08;100076.38;;;19.19;100.00
59787;BME280;45672;51.612;5.536;2023-09-18T05:44:34;100081.75;;;19.19;100.00
59787;BME280;45672;51.612;5.536;2023-09-18T05:46:59;100083.41;;;19.20;100.00
59787;BME280;45672;51.612;5.536;2023-09-18T05:49:25;100066.19;;;19.21;100.00
59787;BME280;45672;51.612;5.536;2023-09-18T05:51:50;100082.50;;;19.26;100.00
59787;BME280;45672;51.612;5.536;2023-09-18T05:54:15;100098.47;;;19.27;100.00
59787;BME280;45672;51.612;5.536;2023-09-18T05:56:41;100100.31;;;19.27;100.00
59787;BME280;45672;51.612;5.536;2023-09-18T05:59:07;100099.84;;;19.30;100.00
59787;BME280;45672;51.612;5.536;2023-09-18T06:01:32;100109.59;;;19.31;100.00
59787;BME280;45672;51.612;5.536;2023-09-18T06:03:58;100103.63;;;19.29;100.00
59787;BME280;45672;51.612;5.536;2023-09-18T06:06:23;100111.25;;;19.32;100.00
59787;BME280;45672;51.612;5.536;2023-09-18T06:08:51;100105.03;;;19.32;100.00
59787;BME280;45672;51.612;5.536;2023-09-18T06:11:19;100110.06;;;19.28;100.00
59787;BME280;45672;51.612;5.536;2023-09-18T06:13:44;100122.50;;;19.29;100.00
59787;BME280;45672;51.612;5.536;2023-09-18T06:16:09;100130.81;;;19.27;100.00
59787;BME280;45672;51.612;5.536;2023-09-18T06:18:35;100121.56;;;19.23;100.00
59787;BME280;45672;51.612;5.536;2023-09-18T06:21:03;100130.22;;;19.25;100.00
59787;BME280;45672;51.612;5.536;2023-09-18T06:23:28;100126.72;;;19.25;100.00
59787;BME280;45672;51.612;5.536;2023-09-18T06:25:53;100127.75;;;19.24;100.00
59787;BME280;45672;51.612;5.536;2023-09-18T06:28:22;100126.09;;;19.23;100.00
59787;BME280;45672;51.612;5.536;2023-09-18T06:30:47;100133.84;;;19.19;100.00
59787;BME280;45672;51.612;5.536;2023-09-18T06:33:13;100133.94;;;19.12;100.00
59787;BME280;45672;51.612;5.536;2023-09-18T06:35:38;100145.44;;;19.20;100.00
59787;BME280;45672;51.612;5.536;2023-09-18T06:38:04;100141.09;;;19.19;100.00
59787;BME280;45672;51.612;5.536;2023-09-18T06:40:31;100140.75;;;19.15;100.00
59787;BME280;45672;51.612;5.536;2023-09-18T06:43:00;100143.22;;;19.17;100.00
59787;BME280;45672;51.612;5.536;2023-09-18T06:45:25;100151.88;;;19.19;100.00
59787;BME280;45672;51.612;5.536;2023-09-18T06:47:50;100151.53;;;19.15;100.00
59787;BME280;45672;51.612;5.536;2023-09-18T06:50:16;100164.47;;;19.25;100.00
59787;BME280;45672;51.612;5.536;2023-09-18T06:52:43;100166.13;;;19.26;100.00
59787;BME280;45672;51.612;5.536;2023-09-18T06:55:09;100160.03;;;19.31;100.00
59787;BME280;45672;51.612;5.536;2023-09-18T06:57:34;100160.63;;;19.33;100.00
59787;BME280;45672;51.612;5.536;2023-09-18T07:00:03;100165.91;;;19.39;100.00
59787;BME280;45672;51.612;5.536;2023-09-18T07:02:30;100173.09;;;19.45;100.00
59787;BME280;45672;51.612;5.536;2023-09-18T07:04:56;100162.28;;;19.45;100.00
59787;BME280;45672;51.612;5.536;2023-09-18T07:07:21;100174.63;;;19.53;100.00
59787;BME280;45672;51.612;5.536;2023-09-18T07:09:51;100175.84;;;19.57;100.00
59787;BME280;45672;51.612;5.536;2023-09-18T07:12:16;100176.19;;;19.61;100.00
59787;BME280;45672;51.612;5.536;2023-09-18T07:14:45;100166.06;;;19.56;100.00
59787;BME280;45672;51.612;5.536;2023-09-18T07:17:10;100174.25;;;19.50;100.00
59787;BME280;45672;51.612;5.536;2023-09-18T07:19:36;100171.34;;;19.51;100.00
59787;BME280;45672;51.612;5.536;2023-09-18T07:22:01;100169.25;;;19.53;100.00
59787;BME280;45672;51.612;5.536;2023-09-18T07:24:27;100173.81;;;19.53;100.00
59787;BME280;45672;51.612;5.536;2023-09-18T07:26:53;100179.66;;;19.50;100.00
59787;BME280;45672;51.612;5.536;2023-09-18T07:29:18;100187.75;;;19.50;100.00
59787;BME280;45672;51.612;5.536;2023-09-18T07:31:44;100187.75;;;19.50;100.00
59787;BME280;45672;51.612;5.536;2023-09-18T07:34:10;100185.06;;;19.50;100.00
59787;BME280;45672;51.612;5.536;2023-09-18T07:36:36;100190.84;;;19.53;100.00
59787;BME280;45672;51.612;5.536;2023-09-18T07:39:02;100183.78;;;19.52;100.00
59787;BME280;45672;51.612;5.536;2023-09-18T07:41:27;100180.53;;;19.62;100.00
59787;BME280;45672;51.612;5.536;2023-09-18T07:43:53;100188.75;;;19.67;100.00
59787;BME280;45672;51.612;5.536;2023-09-18T07:46:18;100193.69;;;19.70;100.00
59787;BME280;45672;51.612;5.536;2023-09-18T07:48:43;100188.97;;;19.66;100.00
59787;BME280;45672;51.612;5.536;2023-09-18T07:51:12;100183.69;;;19.59;100.00
59787;BME280;45672;51.612;5.536;2023-09-18T07:53:38;100190.03;;;19.64;100.00
59787;BME280;45672;51.612;5.536;2023-09-18T07:56:04;100193.81;;;19.75;100.00
59787;BME280;45672;51.612;5.536;2023-09-18T07:58:30;100190.69;;;19.90;100.00
59787;BME280;45672;51.612;5.536;2023-09-18T08:00:56;100196.00;;;19.97;100.00
59787;BME280;45672;51.612;5.536;2023-09-18T08:03:25;100190.59;;;19.97;100.00
59787;BME280;45672;51.612;5.536;2023-09-18T08:05:52;100193.75;;;19.94;100.00
59787;BME280;45672;51.612;5.536;2023-09-18T08:08:19;100192.34;;;19.91;100.00
59787;BME280;45672;51.612;5.536;2023-09-18T08:10:52;100199.84;;;19.89;100.00
59787;BME280;45672;51.612;5.536;2023-09-18T08:13:17;100193.50;;;19.95;100.00
59787;BME280;45672;51.612;5.536;2023-09-18T08:15:45;100193.03;;;19.87;100.00
59787;BME280;45672;51.612;5.536;2023-09-18T08:18:10;100190.81;;;19.84;100.00
59787;BME280;45672;51.612;5.536;2023-09-18T08:20:40;100189.63;;;19.79;100.00
59787;BME280;45672;51.612;5.536;2023-09-18T08:23:05;100193.31;;;19.97;100.00
59787;BME280;45672;51.612;5.536;2023-09-18T08:25:31;100189.44;;;20.28;100.00
59787;BME280;45672;51.612;5.536;2023-09-18T08:27:57;100214.72;;;21.27;100.00
59787;BME280;45672;51.612;5.536;2023-09-18T08:30:22;100218.72;;;21.82;100.00
59787;BME280;45672;51.612;5.536;2023-09-18T08:32:47;100216.91;;;22.78;100.00
59787;BME280;45672;51.612;5.536;2023-09-18T08:35:13;100223.69;;;23.47;96.35
59787;BME280;45672;51.612;5.536;2023-09-18T08:37:40;100230.06;;;23.63;93.70
59787;BME280;45672;51.612;5.536;2023-09-18T08:40:07;100238.56;;;23.17;95.34
59787;BME280;45672;51.612;5.536;2023-09-18T08:42:35;100250.50;;;22.55;98.79
59787;BME280;45672;51.612;5.536;2023-09-18T08:45:07;100249.38;;;22.73;98.35
59787;BME280;45672;51.612;5.536;2023-09-18T08:47:34;100242.88;;;22.74;98.23
59787;BME280;45672;51.612;5.536;2023-09-18T08:50:03;100255.25;;;22.31;99.68
59787;BME280;45672;51.612;5.536;2023-09-18T08:52:29;100250.16;;;22.51;100.00
59787;BME280;45672;51.612;5.536;2023-09-18T08:54:55;100245.50;;;22.86;96.68
59787;BME280;45672;51.612;5.536;2023-09-18T08:57:21;100247.84;;;23.21;94.60
59787;BME280;45672;51.612;5.536;2023-09-18T08:59:48;100239.63;;;22.94;95.28
59787;BME280;45672;51.612;5.536;2023-09-18T09:02:15;100252.31;;;22.88;96.25
59787;BME280;45672;51.612;5.536;2023-09-18T09:04:40;100245.13;;;24.03;92.17
59787;BME280;45672;51.612;5.536;2023-09-18T09:07:06;100244.13;;;24.52;86.03
59787;BME280;45672;51.612;5.536;2023-09-18T09:09:32;100251.69;;;24.45;87.49
59787;BME280;45672;51.612;5.536;2023-09-18T09:11:57;100242.41;;;25.98;76.38
59787;BME280;45672;51.612;5.536;2023-09-18T09:14:22;100237.75;;;27.26;68.13
59787;BME280;45672;51.612;5.536;2023-09-18T09:16:53;100242.47;;;27.60;64.67
59787;BME280;45672;51.612;5.536;2023-09-18T09:19:31;100264.25;;;28.69;63.61
59787;BME280;45672;51.612;5.536;2023-09-18T09:21:57;100262.94;;;29.34;54.81
59787;BME280;45672;51.612;5.536;2023-09-18T09:24:40;100255.63;;;30.00;54.26
59787;BME280;45672;51.612;5.536;2023-09-18T09:27:06;100263.81;;;30.66;50.07
59787;BME280;45672;51.612;5.536;2023-09-18T09:29:31;100263.66;;;31.27;49.19
59787;BME280;45672;51.612;5.536;2023-09-18T09:32:11;100262.81;;;31.40;51.29
59787;BME280;45672;51.612;5.536;2023-09-18T09:34:37;100278.03;;;30.68;49.31
59787;BME280;45672;51.612;5.536;2023-09-18T09:37:03;100267.84;;;30.08;51.82
59787;BME280;45672;51.612;5.536;2023-09-18T09:39:29;100278.13;;;29.64;51.41
59787;BME280;45672;51.612;5.536;2023-09-18T09:41:59;100287.75;;;29.43;52.93
59787;BME280;45672;51.612;5.536;2023-09-18T09:44:25;100279.97;;;29.50;52.32
59787;BME280;45672;51.612;5.536;2023-09-18T09:46:50;100273.09;;;29.52;51.71
59787;BME280;45672;51.612;5.536;2023-09-18T09:49:17;100287.25;;;28.92;52.88
59787;BME280;45672;51.612;5.536;2023-09-18T09:51:45;100278.63;;;27.92;55.80
59787;BME280;45672;51.612;5.536;2023-09-18T09:54:10;100278.88;;;27.50;59.01
59787;BME280;45672;51.612;5.536;2023-09-18T09:56:49;100259.13;;;27.64;60.89
59787;BME280;45672;51.612;5.536;2023-09-18T09:59:19;100264.50;;;27.74;59.34
59787;BME280;45672;51.612;5.536;2023-09-18T10:01:48;100266.94;;;26.35;63.45
59787;BME280;45672;51.612;5.536;2023-09-18T10:04:17;100273.44;;;25.56;66.16
59787;BME280;45672;51.612;5.536;2023-09-18T10:06:51;100264.50;;;24.98;70.64
59787;BME280;45672;51.612;5.536;2023-09-18T10:09:19;100280.47;;;24.78;72.64
59787;BME280;45672;51.612;5.536;2023-09-18T10:11:46;100290.25;;;24.37;74.43
59787;BME280;45672;51.612;5.536;2023-09-18T10:14:16;100302.88;;;23.66;78.55
59787;BME280;45672;51.612;5.536;2023-09-18T10:16:51;100293.34;;;23.14;81.75
59787;BME280;45672;51.612;5.536;2023-09-18T10:19:27;100301.00;;;23.00;84.09
59787;BME280;45672;51.612;5.536;2023-09-18T10:24:45;100300.75;;;22.63;87.64
59787;BME280;45672;51.612;5.536;2023-09-18T10:27:12;100307.09;;;22.51;88.84
59787;BME280;45672;51.612;5.536;2023-09-18T10:29:41;100294.34;;;22.69;90.29
59787;BME280;45672;51.612;5.536;2023-09-18T10:32:07;100277.81;;;22.70;88.85
59787;BME280;45672;51.612;5.536;2023-09-18T10:34:34;100284.03;;;23.10;86.25
59787;BME280;45672;51.612;5.536;2023-09-18T10:37:01;100284.97;;;23.65;85.57
59787;BME280;45672;51.612;5.536;2023-09-18T10:39:38;100300.00;;;24.00;82.85
59787;BME280;45672;51.612;5.536;2023-09-18T10:42:07;100294.28;;;23.97;79.42
59787;BME280;45672;51.612;5.536;2023-09-18T10:44:32;100297.59;;;23.77;80.50
59787;BME280;45672;51.612;5.536;2023-09-18T10:47:00;100306.28;;;23.79;80.04
59787;BME280;45672;51.612;5.536;2023-09-18T10:49:26;100282.44;;;23.86;79.84
59787;BME280;45672;51.612;5.536;2023-09-18T10:51:55;100288.31;;;23.72;79.88
59787;BME280;45672;51.612;5.536;2023-09-18T10:54:23;100289.66;;;23.48;79.95
59787;BME280;45672;51.612;5.536;2023-09-18T10:56:50;100282.00;;;23.17;83.74
59787;BME280;45672;51.612;5.536;2023-09-18T10:59:16;100279.56;;;22.99;84.57
59787;BME280;45672;51.612;5.536;2023-09-18T11:01:42;100278.09;;;22.91;85.55
59787;BME280;45672;51.612;5.536;2023-09-18T11:04:08;100282.44;;;22.92;85.44
59787;BME280;45672;51.612;5.536;2023-09-18T11:09:23;100281.59;;;23.09;81.99
59787;BME280;45672;51.612;5.536;2023-09-18T11:17:38;100282.69;;;23.30;81.61
59787;BME280;45672;51.612;5.536;2023-09-18T11:20:08;100289.13;;;23.23;81.28
59787;BME280;45672;51.612;5.536;2023-09-18T11:23:17;100284.19;;;23.20;79.30
59787;BME280;45672;51.612;5.536;2023-09-18T11:25:29;100280.50;;;23.10;79.75
59787;BME280;45672;51.612;5.536;2023-09-18T11:27:56;100292.72;;;23.29;80.14
59787;BME280;45672;51.612;5.536;2023-09-18T11:30:22;100281.78;;;23.46;79.06
59787;BME280;45672;51.612;5.536;2023-09-18T11:32:49;100288.84;;;23.47;78.86
59787;BME280;45672;51.612;5.536;2023-09-18T11:35:14;100293.47;;;23.24;80.05
59787;BME280;45672;51.612;5.536;2023-09-18T11:37:43;100295.84;;;23.21;81.57
59787;BME280;45672;51.612;5.536;2023-09-18T11:40:28;100287.72;;;23.21;81.28
59787;BME280;45672;51.612;5.536;2023-09-18T11:45:44;100285.78;;;23.16;80.94
59787;BME280;45672;51.612;5.536;2023-09-18T11:48:13;100283.78;;;23.34;80.44
59787;BME280;45672;51.612;5.536;2023-09-18T11:50:41;100281.25;;;23.49;80.07
59787;BME280;45672;51.612;5.536;2023-09-18T11:53:06;100281.88;;;23.56;77.39
59787;BME280;45672;51.612;5.536;2023-09-18T11:55:33;100281.88;;;23.56;77.20
59787;BME280;45672;51.612;5.536;2023-09-18T11:57:58;100288.69;;;23.59;77.05
59787;BME280;45672;51.612;5.536;2023-09-18T12:00:26;100277.03;;;23.36;73.17
59787;BME280;45672;51.612;5.536;2023-09-18T12:02:55;100272.38;;;23.32;73.17
59787;BME280;45672;51.612;5.536;2023-09-18T12:05:20;100277.25;;;23.30;74.01
59787;BME280;45672;51.612;5.536;2023-09-18T12:07:46;100261.09;;;23.18;74.17
59787;BME280;45672;51.612;5.536;2023-09-18T12:10:16;100268.81;;;23.09;75.25
59787;BME280;45672;51.612;5.536;2023-09-18T12:12:43;100255.88;;;23.11;76.39
59787;BME280;45672;51.612;5.536;2023-09-18T12:15:12;100262.34;;;23.10;78.79
59787;BME280;45672;51.612;5.536;2023-09-18T12:17:37;100266.38;;;23.07;76.87
59787;BME280;45672;51.612;5.536;2023-09-18T12:20:03;100257.34;;;23.02;77.07
59787;BME280;45672;51.612;5.536;2023-09-18T12:22:30;100257.91;;;23.04;77.14
59787;BME280;45672;51.612;5.536;2023-09-18T12:25:13;100263.38;;;23.26;77.58
59787;BME280;45672;51.612;5.536;2023-09-18T12:27:43;100264.25;;;23.32;75.77
59787;BME280;45672;51.612;5.536;2023-09-18T12:30:10;100255.53;;;23.30;73.51
59787;BME280;45672;51.612;5.536;2023-09-18T12:32:37;100260.06;;;23.46;71.98
59787;BME280;45672;51.612;5.536;2023-09-18T12:35:03;100257.31;;;23.41;71.72
59787;BME280;45672;51.612;5.536;2023-09-18T12:37:32;100259.63;;;23.32;70.57
59787;BME280;45672;51.612;5.536;2023-09-18T12:39:57;100256.78;;;23.22;71.82
59787;BME280;45672;51.612;5.536;2023-09-18T12:42:23;100251.34;;;23.17;71.91
59787;BME280;45672;51.612;5.536;2023-09-18T12:44:49;100238.13;;;23.26;71.73
59787;BME280;45672;51.612;5.536;2023-09-18T12:47:16;100243.06;;;23.34;71.22
59787;BME280;45672;51.612;5.536;2023-09-18T12:49:41;100242.88;;;23.40;73.00
59787;BME280;45672;51.612;5.536;2023-09-18T12:52:06;100236.44;;;23.47;71.71
59787;BME280;45672;51.612;5.536;2023-09-18T12:54:42;100239.47;;;23.50;70.46
59787;BME280;45672;51.612;5.536;2023-09-18T12:57:09;100238.28;;;23.41;68.34